Time;durP1;ratioP1;P1;durP2;ratioP2;P2;SDS_P1;SDS_P2;PMS_P1;PMS_P2;Temp;Humidity;BMP_temperature;BMP_pressure;BME280_temperature;BME280_humidity;BME280_pressure;Samples;Min_cycle;Max_cycle;Signal;HPM_P1;HPM_P2
2021/07/14 00:00:29;;;;;;;2.13;1.00;;;;;;;13.49;85.75;96046.31;5073067;28;20043;-77
2021/07/14 00:02:55;;;;;;;1.00;0.90;;;;;;;13.48;85.71;96036.00;5073560;28;20040;-77
2021/07/14 00:05:23;;;;;;;1.50;0.80;;;;;;;13.45;85.49;96024.13;5073128;28;20039;-76
2021/07/14 00:07:49;;;;;;;1.70;0.95;;;;;;;13.44;85.59;96025.19;5073453;28;20457;-76
2021/07/14 00:10:29;;;;;;;1.55;1.38;;;;;;;13.44;85.53;96019.09;5072974;28;20033;-76
2021/07/14 00:13:19;;;;;;;0.85;0.80;;;;;;;13.42;85.63;96000.94;5073037;28;20043;-76
2021/07/14 00:23:55;;;;;;;1.38;0.90;;;;;;;13.37;85.70;96000.84;5072543;28;20048;-76
2021/07/14 00:26:22;;;;;;;1.02;0.90;;;;;;;13.35;85.74;96001.09;5072708;28;20032;-76
2021/07/14 00:28:49;;;;;;;1.45;0.90;;;;;;;13.34;85.70;96009.25;5073338;28;20044;-76
2021/07/14 00:31:16;;;;;;;1.10;0.98;;;;;;;13.32;85.62;96006.88;5073213;28;20037;-76
2021/07/14 00:33:47;;;;;;;0.95;0.80;;;;;;;13.30;85.52;96013.41;5072003;28;20067;-76
2021/07/14 00:36:15;;;;;;;1.00;1.00;;;;;;;13.28;85.50;96007.56;5072144;28;20045;-76
2021/07/14 00:38:41;;;;;;;2.08;1.00;;;;;;;13.26;85.73;95993.84;5072735;28;20476;-76
2021/07/14 00:41:08;;;;;;;1.48;0.98;;;;;;;13.25;85.82;95995.69;5072812;28;20040;-76
2021/07/14 00:43:34;;;;;;;1.05;1.00;;;;;;;13.24;85.82;95985.41;5071284;28;20043;-76
2021/07/14 00:46:24;;;;;;;1.83;1.05;;;;;;;13.25;86.09;95981.72;5072862;28;20036;-76
2021/07/14 00:48:51;;;;;;;1.73;1.10;;;;;;;13.23;85.95;95974.09;5073313;28;20044;-76
2021/07/14 00:51:18;;;;;;;1.05;0.90;;;;;;;13.25;85.96;95964.09;5072620;28;20043;-77
2021/07/14 00:53:44;;;;;;;1.17;0.90;;;;;;;13.26;85.89;95957.00;5073054;28;20037;-76
2021/07/14 00:56:11;;;;;;;1.52;1.20;;;;;;;13.25;85.85;95947.47;5073000;28;20049;-77
2021/07/14 00:58:38;;;;;;;1.48;1.10;;;;;;;13.24;85.79;95940.66;5076700;28;20445;-76
2021/07/14 01:01:04;;;;;;;2.08;1.40;;;;;;;13.23;85.82;95953.03;5076216;28;20043;-76
2021/07/14 01:03:46;;;;;;;4.68;1.30;;;;;;;13.20;85.86;95972.72;5075330;28;20053;-76
2021/07/14 01:06:20;;;;;;;3.03;1.17;;;;;;;13.16;85.77;95990.03;5076255;28;20063;-76
2021/07/14 01:08:59;;;;;;;3.10;0.90;;;;;;;13.13;85.95;95998.44;5075982;28;20431;-76
2021/07/14 01:11:30;;;;;;;1.95;1.00;;;;;;;13.10;85.85;96000.75;5074925;28;20040;-76
2021/07/14 01:14:05;;;;;;;1.88;0.90;;;;;;;13.08;85.77;96019.47;5076417;28;20036;-76
2021/07/14 01:16:43;;;;;;;1.63;1.00;;;;;;;13.06;86.03;96025.97;5075820;28;20049;-77
2021/07/14 01:19:09;;;;;;;2.00;1.35;;;;;;;13.02;85.80;96032.78;5076135;28;20028;-75
2021/07/14 01:21:43;;;;;;;2.85;1.30;;;;;;;12.94;86.07;96040.06;5075785;28;20036;-75
2021/07/14 01:24:39;;;;;;;2.55;1.45;;;;;;;12.83;86.80;96043.59;5075475;28;20040;-76
2021/07/14 01:27:20;;;;;;;2.28;1.80;;;;;;;12.75;86.69;96034.25;5075790;28;20457;-75
2021/07/14 01:29:50;;;;;;;2.97;1.45;;;;;;;12.75;86.60;96038.75;5074877;28;20055;-76
2021/07/14 01:32:20;;;;;;;2.47;1.35;;;;;;;12.74;86.74;96047.66;5075959;28;20031;-75
2021/07/14 01:34:50;;;;;;;2.53;1.33;;;;;;;12.72;86.99;96042.63;5075972;28;20040;-75
2021/07/14 01:37:19;;;;;;;3.50;1.23;;;;;;;12.70;87.02;96044.69;5075657;28;20060;-76
2021/07/14 01:39:47;;;;;;;2.28;1.60;;;;;;;12.70;87.00;96052.59;5062610;28;20131;-75
2021/07/14 01:42:14;;;;;;;2.58;1.48;;;;;;;12.71;87.22;96061.31;5075724;28;20032;-76
2021/07/14 01:44:42;;;;;;;2.25;1.30;;;;;;;12.70;87.30;96070.22;5075523;28;20043;-75
2021/07/14 01:47:09;;;;;;;2.13;1.52;;;;;;;12.69;87.41;96066.00;5075479;28;20055;-76
2021/07/14 01:49:38;;;;;;;4.20;1.50;;;;;;;12.67;87.55;96065.44;5075216;28;20098;-75
2021/07/14 01:52:11;;;;;;;2.22;1.63;;;;;;;12.68;87.89;96067.84;5075401;28;20037;-75
2021/07/14 01:54:39;;;;;;;4.63;1.20;;;;;;;12.69;87.94;96058.91;5064039;28;20044;-75
2021/07/14 01:57:07;;;;;;;4.00;1.50;;;;;;;12.69;87.88;96047.59;5075063;28;20049;-76
2021/07/14 01:59:36;;;;;;;3.22;1.48;;;;;;;12.57;87.96;96042.41;5075124;28;20037;-76
2021/07/14 02:02:04;;;;;;;2.38;1.35;;;;;;;12.56;88.10;96043.47;5075135;28;20032;-76
2021/07/14 02:04:35;;;;;;;1.40;1.30;;;;;;;12.60;88.33;96049.84;5074995;28;20043;-77
2021/07/14 02:07:05;;;;;;;1.80;1.45;;;;;;;12.63;88.74;96048.56;5074234;28;20396;-75
2021/07/14 02:09:33;;;;;;;2.75;1.55;;;;;;;12.67;88.51;96044.41;5075326;28;20044;-75
2021/07/14 02:12:01;;;;;;;3.97;1.38;;;;;;;12.69;88.65;96037.88;5074954;28;20457;-75
2021/07/14 02:14:37;;;;;;;1.73;1.60;;;;;;;12.71;89.00;96033.16;5073958;28;20041;-75
2021/07/14 02:17:15;;;;;;;1.65;1.23;;;;;;;12.73;88.90;96043.44;5075297;28;20057;-75
2021/07/14 02:19:48;;;;;;;2.55;1.60;;;;;;;12.72;88.74;96041.84;5073990;28;20044;-75
2021/07/14 02:22:14;;;;;;;2.63;1.83;;;;;;;12.69;88.55;96043.13;5074692;28;20033;-75
2021/07/14 02:24:40;;;;;;;2.30;1.30;;;;;;;12.67;88.71;96036.50;5074526;28;20020;-75
2021/07/14 02:27:07;;;;;;;2.67;1.50;;;;;;;12.67;88.87;96039.16;5074821;28;20048;-75
2021/07/14 02:29:38;;;;;;;2.88;1.55;;;;;;;12.61;88.72;96033.00;5074445;28;20488;-75
2021/07/14 02:32:07;;;;;;;4.50;1.70;;;;;;;12.58;88.90;96036.13;5074674;28;20045;-75
2021/07/14 02:34:34;;;;;;;2.88;1.50;;;;;;;12.59;89.09;96032.44;5073536;28;20040;-75
2021/07/14 02:37:03;;;;;;;3.53;1.48;;;;;;;12.61;89.22;96030.38;5074413;28;20032;-75
2021/07/14 02:39:30;;;;;;;4.40;1.70;;;;;;;12.62;89.11;96031.16;5074374;28;20055;-75
2021/07/14 02:42:05;;;;;;;2.80;1.55;;;;;;;12.61;89.17;96030.38;5074903;28;20400;-75
2021/07/14 02:44:39;;;;;;;2.80;1.80;;;;;;;12.58;89.00;96036.91;5074434;28;20032;-75
2021/07/14 02:47:06;;;;;;;3.53;2.22;;;;;;;12.54;88.88;96037.66;5074091;28;20040;-75
2021/07/14 02:49:38;;;;;;;2.25;1.42;;;;;;;12.53;89.13;96038.66;5073549;28;20049;-75
2021/07/14 02:52:09;;;;;;;2.70;1.48;;;;;;;12.51;89.18;96046.00;5074277;28;20044;-75
2021/07/14 02:54:39;;;;;;;3.42;1.60;;;;;;;12.51;89.23;96041.53;5074031;28;20379;-75
2021/07/14 02:57:07;;;;;;;2.45;1.33;;;;;;;12.51;89.20;96038.91;5073264;28;20107;-74
2021/07/14 02:59:35;;;;;;;3.55;1.55;;;;;;;12.51;89.29;96035.47;5073500;28;20048;-76
2021/07/14 03:02:03;;;;;;;2.17;1.50;;;;;;;12.49;89.15;96038.34;5074058;28;20028;-75
2021/07/14 03:04:36;;;;;;;2.05;1.92;;;;;;;12.49;89.09;96040.19;5073903;28;20032;-75
2021/07/14 03:07:09;;;;;;;2.88;2.03;;;;;;;12.41;89.02;96040.56;5074279;28;20040;-75
2021/07/14 03:09:37;;;;;;;3.20;1.55;;;;;;;12.35;88.92;96040.50;5073056;28;20044;-75
2021/07/14 03:12:06;;;;;;;2.63;1.77;;;;;;;12.34;89.30;96043.38;5073522;28;20052;-75
2021/07/14 03:14:35;;;;;;;3.53;1.58;;;;;;;12.32;89.39;96048.84;5073557;28;20036;-77
2021/07/14 03:17:01;;;;;;;5.68;1.58;;;;;;;12.33;89.58;96049.69;5073770;28;20055;-74
2021/07/14 03:19:28;;;;;;;3.08;1.50;;;;;;;12.34;89.57;96046.00;5073181;28;20035;-74
2021/07/14 03:21:55;;;;;;;1.98;1.88;;;;;;;12.35;89.54;96042.34;5073874;28;20409;-75
2021/07/14 03:24:22;;;;;;;2.15;1.60;;;;;;;12.37;89.62;96035.00;5073647;28;20036;-75
2021/07/14 03:26:48;;;;;;;1.70;1.55;;;;;;;12.40;89.45;96031.91;5072835;28;20051;-75
2021/07/14 03:29:16;;;;;;;2.65;1.58;;;;;;;12.44;89.73;96029.59;5073616;28;20045;-75
2021/07/14 03:31:44;;;;;;;2.28;1.70;;;;;;;12.45;89.57;96036.44;5073527;28;20040;-75
2021/07/14 03:34:11;;;;;;;1.60;1.50;;;;;;;12.47;89.47;96032.53;5072525;28;20044;-75
2021/07/14 03:36:37;;;;;;;3.42;2.10;;;;;;;12.45;89.28;96029.38;5073133;28;20029;-76
2021/07/14 03:39:05;;;;;;;4.72;2.47;;;;;;;12.42;89.16;96019.31;5072269;28;20048;-76
2021/07/14 03:41:32;;;;;;;2.15;1.75;;;;;;;12.43;89.35;96009.56;5073139;28;20060;-76
2021/07/14 03:43:58;;;;;;;4.47;2.50;;;;;;;12.43;89.35;96015.66;5072361;28;20040;-76
2021/07/14 03:46:26;;;;;;;2.17;2.00;;;;;;;12.40;89.37;96026.63;5073524;28;20449;-75
2021/07/14 03:48:53;;;;;;;3.67;2.03;;;;;;;12.38;89.50;96029.50;5073375;28;20389;-75
2021/07/14 03:51:23;;;;;;;2.55;2.15;;;;;;;12.36;89.61;96028.94;5073310;28;20386;-75
2021/07/14 03:53:51;;;;;;;3.83;1.95;;;;;;;12.31;89.74;96028.09;5073364;28;20095;-75
2021/07/14 03:56:22;;;;;;;2.85;2.00;;;;;;;12.31;90.09;96033.34;5073190;28;20033;-75
2021/07/14 03:58:49;;;;;;;2.10;1.95;;;;;;;12.31;89.77;96031.50;5073777;28;20036;-75
2021/07/14 04:01:18;;;;;;;2.13;1.92;;;;;;;12.33;90.02;96036.53;5073132;28;20044;-75
2021/07/14 04:03:45;;;;;;;2.92;1.92;;;;;;;12.34;90.10;96038.91;5073261;28;20044;-75
2021/07/14 04:06:14;;;;;;;1.90;1.80;;;;;;;12.37;90.10;96042.91;5072852;28;20040;-75
2021/07/14 04:08:44;;;;;;;2.20;1.98;;;;;;;12.36;90.10;96047.34;5072766;28;20044;-75
2021/07/14 04:11:13;;;;;;;3.05;2.40;;;;;;;12.36;89.90;96047.34;5073012;28;20025;-75
2021/07/14 04:13:41;;;;;;;4.80;2.00;;;;;;;12.34;90.02;96054.69;5072403;28;20250;-75
2021/07/14 04:16:08;;;;;;;3.80;1.92;;;;;;;12.31;90.15;96043.84;5073458;28;20358;-75
2021/07/14 04:18:34;;;;;;;4.55;2.70;;;;;;;12.28;90.05;96046.94;5073385;28;20048;-76
2021/07/14 04:21:01;;;;;;;4.70;2.15;;;;;;;12.21;90.23;96048.94;5073262;28;20384;-75
2021/07/14 04:23:27;;;;;;;1.90;1.80;;;;;;;12.16;90.34;96039.16;5072921;28;20028;-75
2021/07/14 04:25:53;;;;;;;2.53;2.00;;;;;;;12.20;91.12;96040.28;5073066;28;20043;-75
2021/07/14 04:28:19;;;;;;;2.22;1.92;;;;;;;12.24;91.10;96041.38;5073115;28;20037;-76
2021/07/14 04:30:45;;;;;;;3.15;2.17;;;;;;;12.25;90.73;96036.91;5073597;28;20032;-77
2021/07/14 04:33:11;;;;;;;1.90;1.73;;;;;;;12.25;91.10;96037.72;5076679;28;20037;-75
2021/07/14 04:35:40;;;;;;;1.98;1.88;;;;;;;12.25;90.85;96039.53;5076781;28;20051;-75
2021/07/14 04:38:07;;;;;;;2.58;2.13;;;;;;;12.19;90.94;96033.41;5076692;28;20029;-75
2021/07/14 04:40:33;;;;;;;1.42;1.42;;;;;;;12.21;91.31;96023.44;5076555;28;20354;-76
2021/07/14 04:43:00;;;;;;;1.70;1.60;;;;;;;12.29;91.50;96024.91;5076451;28;20041;-75
2021/07/14 04:45:26;;;;;;;1.67;1.67;;;;;;;12.35;91.36;96032.63;5076274;28;20040;-76
2021/07/14 04:47:52;;;;;;;2.00;1.63;;;;;;;12.37;91.20;96033.19;5076139;28;20040;-76
2021/07/14 04:50:18;;;;;;;1.38;1.33;;;;;;;12.42;91.19;96029.03;5075528;28;20045;-75
2021/07/14 04:52:44;;;;;;;1.55;1.45;;;;;;;12.47;91.18;96029.88;5075473;28;20052;-75
2021/07/14 04:55:11;;;;;;;3.22;1.50;;;;;;;12.48;91.07;96030.72;5076394;28;20032;-75
2021/07/14 04:57:37;;;;;;;1.42;1.30;;;;;;;12.49;91.13;96033.06;5076270;28;20035;-75
2021/07/14 05:00:07;;;;;;;1.65;1.58;;;;;;;12.50;91.19;96028.63;5076462;28;20460;-75
2021/07/14 05:02:33;;;;;;;1.73;1.35;;;;;;;12.56;91.59;96025.06;5075946;28;20020;-76
2021/07/14 05:04:59;;;;;;;2.60;1.70;;;;;;;12.53;91.02;96020.25;5076064;28;20037;-76
2021/07/14 05:07:28;;;;;;;1.50;1.40;;;;;;;12.55;91.30;96024.22;5076444;28;20048;-76
2021/07/14 05:09:54;;;;;;;2.80;1.83;;;;;;;12.59;91.25;96025.34;5075980;28;20032;-76
2021/07/14 05:12:20;;;;;;;1.75;1.58;;;;;;;12.63;91.25;96028.31;5075370;28;20052;-75
2021/07/14 05:14:46;;;;;;;1.67;1.58;;;;;;;12.66;91.37;96027.00;5075398;28;20067;-76
2021/07/14 05:17:13;;;;;;;5.57;1.90;;;;;;;12.71;91.38;96016.56;5075108;28;20487;-75
2021/07/14 05:19:39;;;;;;;2.08;1.80;;;;;;;12.73;91.19;96017.94;5075543;28;20045;-76
2021/07/14 05:22:05;;;;;;;1.55;1.45;;;;;;;12.76;91.27;96025.31;5076421;28;20049;-75
2021/07/14 05:24:31;;;;;;;1.83;1.52;;;;;;;12.79;91.12;96022.22;5074059;28;20048;-75
2021/07/14 05:26:58;;;;;;;2.28;1.50;;;;;;;12.79;90.94;96024.84;5075746;28;20051;-75
2021/07/14 05:29:24;;;;;;;2.55;1.65;;;;;;;12.82;91.06;96025.41;5074529;28;20388;-75
2021/07/14 05:31:50;;;;;;;2.90;1.80;;;;;;;12.86;91.07;96016.00;5075754;28;20032;-75
2021/07/14 05:34:16;;;;;;;3.65;1.85;;;;;;;12.91;91.15;96021.31;5075551;28;20032;-75
2021/07/14 05:36:42;;;;;;;1.80;1.70;;;;;;;12.93;90.78;96021.88;5075717;28;20400;-75
2021/07/14 05:39:08;;;;;;;2.50;1.88;;;;;;;12.93;90.63;96024.50;5075739;28;20036;-75
2021/07/14 05:41:36;;;;;;;2.00;1.90;;;;;;;12.90;90.52;96017.09;5074388;28;20041;-75
2021/07/14 05:44:02;;;;;;;3.55;2.30;;;;;;;12.86;90.41;96016.00;5075570;28;20354;-75
2021/07/14 05:46:28;;;;;;;2.80;1.80;;;;;;;12.84;90.52;96016.22;5075187;28;20059;-75
2021/07/14 05:49:00;;;;;;;1.77;1.63;;;;;;;12.87;90.75;96028.09;5074311;28;20052;-75
2021/07/14 05:51:26;;;;;;;2.40;2.22;;;;;;;12.91;90.77;96023.94;5075472;28;20032;-75
2021/07/14 05:53:52;;;;;;;3.95;2.13;;;;;;;12.95;90.57;96025.84;5074894;28;20075;-75
2021/07/14 05:56:18;;;;;;;2.28;2.17;;;;;;;13.00;90.64;96025.13;5075412;28;20036;-75
2021/07/14 05:58:44;;;;;;;2.00;1.90;;;;;;;13.05;90.66;96024.41;5075078;28;20036;-76
2021/07/14 06:01:10;;;;;;;2.03;1.80;;;;;;;13.08;90.67;96034.44;5065534;28;20028;-75
2021/07/14 06:03:37;;;;;;;2.05;1.90;;;;;;;13.14;90.60;96033.47;5075029;28;20032;-75
2021/07/14 06:06:03;;;;;;;2.65;2.45;;;;;;;13.12;90.20;96028.47;5074824;28;20051;-75
2021/07/14 06:08:29;;;;;;;2.72;2.10;;;;;;;13.14;90.32;96022.94;5075607;28;20036;-75
2021/07/14 06:10:55;;;;;;;3.33;2.05;;;;;;;13.12;90.18;96031.09;5075218;28;20040;-75
2021/07/14 06:13:21;;;;;;;3.55;3.08;;;;;;;13.15;90.27;96030.59;5074138;28;20045;-75
2021/07/14 06:15:47;;;;;;;2.22;2.03;;;;;;;13.17;90.16;96036.41;5074674;28;20049;-75
2021/07/14 06:18:13;;;;;;;1.88;1.77;;;;;;;13.16;90.20;96039.28;5074441;28;20059;-74
2021/07/14 06:20:40;;;;;;;2.10;2.00;;;;;;;13.15;90.18;96041.13;5074750;28;20035;-75
2021/07/14 06:23:06;;;;;;;2.42;2.20;;;;;;;13.14;90.24;96047.41;5074855;28;20048;-74
2021/07/14 06:25:32;;;;;;;2.58;2.00;;;;;;;13.14;90.35;96046.63;5074449;28;20037;-75
2021/07/14 06:28:00;;;;;;;2.78;2.30;;;;;;;13.19;90.57;96046.72;5073797;28;20048;-75
2021/07/14 06:30:27;;;;;;;3.13;2.25;;;;;;;13.18;90.44;96045.88;5074395;28;20076;-75
2021/07/14 06:32:53;;;;;;;3.65;2.60;;;;;;;13.21;90.33;96049.91;5074335;28;20459;-75
2021/07/14 06:35:21;;;;;;;2.75;2.13;;;;;;;13.22;90.37;96046.19;5074754;28;20032;-75
2021/07/14 06:37:48;;;;;;;2.53;2.22;;;;;;;13.27;90.79;96046.28;5073443;28;20051;-75
2021/07/14 06:40:16;;;;;;;2.00;1.90;;;;;;;13.30;90.66;96037.91;5073655;28;20044;-74
2021/07/14 06:42:42;;;;;;;5.38;2.17;;;;;;;13.31;90.34;96054.50;5074117;28;20040;-75
2021/07/14 06:45:13;;;;;;;2.30;2.10;;;;;;;13.34;90.76;96057.44;5073537;28;20397;-75
2021/07/14 06:47:39;;;;;;;3.90;1.92;;;;;;;13.35;90.49;96051.13;5072695;28;20045;-75
2021/07/14 06:50:08;;;;;;;1.88;1.73;;;;;;;13.34;90.07;96051.41;5074186;28;20040;-75
2021/07/14 06:52:34;;;;;;;2.40;1.80;;;;;;;13.35;90.74;96045.06;5072616;28;20036;-74
2021/07/14 06:55:03;;;;;;;2.28;1.90;;;;;;;13.39;90.73;96046.97;5072449;28;20053;-74
2021/07/14 06:57:29;;;;;;;2.25;2.08;;;;;;;13.44;90.61;96040.16;5074024;28;20381;-75
2021/07/14 06:59:55;;;;;;;2.53;1.88;;;;;;;13.49;90.61;96046.31;5074156;28;20059;-74
2021/07/14 07:02:22;;;;;;;3.67;2.10;;;;;;;13.52;90.45;96037.91;5072581;28;20040;-74
2021/07/14 07:04:48;;;;;;;2.05;1.90;;;;;;;13.56;90.68;96052.16;5073841;28;20037;-75
2021/07/14 07:07:14;;;;;;;3.92;2.00;;;;;;;13.58;90.32;96047.44;5073541;28;20052;-75
2021/07/14 07:09:41;;;;;;;3.10;1.80;;;;;;;13.59;90.39;96038.50;5073752;28;20039;-75
2021/07/14 07:12:07;;;;;;;3.13;1.92;;;;;;;13.67;90.58;96036.47;5073185;28;20041;-75
2021/07/14 07:14:33;;;;;;;1.55;1.33;;;;;;;13.75;90.66;96049.22;5073176;28;20041;-77
2021/07/14 07:16:59;;;;;;;1.75;1.65;;;;;;;13.85;90.31;96038.00;5072593;28;20048;-75
2021/07/14 07:19:25;;;;;;;1.90;1.77;;;;;;;13.88;90.08;96042.75;5073196;28;20036;-75
2021/07/14 07:21:51;;;;;;;2.08;1.77;;;;;;;13.90;89.75;96046.75;5073422;28;20039;-75
2021/07/14 07:24:18;;;;;;;1.63;1.50;;;;;;;13.93;89.76;96040.19;5073622;28;20040;-75
2021/07/14 07:26:47;;;;;;;2.00;1.50;;;;;;;13.98;89.63;96048.13;5073437;28;20048;-75
2021/07/14 07:29:14;;;;;;;2.05;1.52;;;;;;;14.05;89.76;96045.28;5072911;28;20053;-75
2021/07/14 07:31:40;;;;;;;2.08;1.35;;;;;;;14.08;89.56;96037.69;5072727;28;20049;-75
2021/07/14 07:34:06;;;;;;;1.30;1.23;;;;;;;14.12;89.14;96041.41;5073795;28;20036;-75
2021/07/14 07:36:32;;;;;;;1.30;1.30;;;;;;;14.15;89.15;96038.28;5073866;28;20040;-75
2021/07/14 07:38:58;;;;;;;1.50;1.40;;;;;;;14.21;89.05;96023.28;5073346;28;20039;-76
2021/07/14 07:41:26;;;;;;;1.50;1.40;;;;;;;14.26;88.73;96035.72;5073432;28;20033;-75
2021/07/14 07:43:54;;;;;;;1.60;1.50;;;;;;;14.26;88.58;96036.53;5073304;28;20048;-76
2021/07/14 07:46:21;;;;;;;1.40;1.30;;;;;;;14.32;88.58;96042.63;5073644;28;20033;-76
2021/07/14 07:48:47;;;;;;;1.10;1.10;;;;;;;14.38;88.38;96044.25;5073086;28;20075;-75
2021/07/14 07:51:14;;;;;;;1.35;1.10;;;;;;;14.47;88.38;96044.59;5073361;28;20051;-76
2021/07/14 07:53:40;;;;;;;1.50;1.20;;;;;;;14.53;88.04;96046.22;5073140;28;20458;-75
2021/07/14 07:56:06;;;;;;;1.45;1.30;;;;;;;14.58;87.57;96052.38;5072713;28;20047;-75
2021/07/14 07:58:33;;;;;;;1.70;1.38;;;;;;;14.63;87.31;96050.81;5073780;28;20476;-75
2021/07/14 08:01:00;;;;;;;1.30;1.20;;;;;;;14.68;87.46;96056.94;5072406;28;20481;-76
2021/07/14 08:03:26;;;;;;;1.45;1.23;;;;;;;14.70;87.17;96054.84;5072125;28;20052;-76
2021/07/14 08:05:52;;;;;;;1.38;1.27;;;;;;;14.69;86.54;96058.53;5075510;28;20040;-76
2021/07/14 08:08:18;;;;;;;1.23;1.20;;;;;;;14.69;86.65;96061.16;5076714;28;20052;-75
2021/07/14 08:10:45;;;;;;;2.05;1.10;;;;;;;14.73;86.72;96061.47;5077629;28;20472;-75
2021/07/14 08:13:11;;;;;;;1.40;1.30;;;;;;;14.78;86.50;96061.47;5077090;28;20043;-76
2021/07/14 08:15:39;;;;;;;1.60;1.50;;;;;;;14.82;86.52;96059.91;5077456;28;20037;-75
2021/07/14 08:18:05;;;;;;;1.30;1.17;;;;;;;14.81;86.12;96059.13;5076987;28;20032;-75
2021/07/14 08:20:32;;;;;;;1.10;1.10;;;;;;;14.79;85.91;96065.72;5077099;28;20029;-75
2021/07/14 08:22:58;;;;;;;1.27;1.20;;;;;;;14.82;86.15;96083.69;5076978;28;20043;-76
2021/07/14 08:25:25;;;;;;;1.20;1.20;;;;;;;14.87;86.32;96088.22;5075256;28;20040;-75
2021/07/14 08:27:51;;;;;;;1.40;1.30;;;;;;;14.92;86.19;96094.31;5076532;28;20048;-75
2021/07/14 08:30:18;;;;;;;1.33;1.20;;;;;;;14.96;86.08;96095.41;5076395;28;20040;-75
2021/07/14 08:32:44;;;;;;;2.58;1.40;;;;;;;14.98;85.82;96097.78;5076900;28;20044;-76
2021/07/14 08:35:11;;;;;;;1.52;1.27;;;;;;;15.01;85.84;96108.66;5077052;28;20039;-76
2021/07/14 08:37:37;;;;;;;1.83;1.15;;;;;;;15.07;86.03;96100.75;5076580;28;20460;-75
2021/07/14 08:40:06;;;;;;;2.53;1.40;;;;;;;15.14;85.93;96107.41;5075545;28;20488;-75
2021/07/14 08:42:36;;;;;;;1.42;1.33;;;;;;;15.17;85.58;96106.09;5061033;28;20035;-75
2021/07/14 08:45:07;;;;;;;1.58;1.48;;;;;;;15.18;85.14;96095.28;5076602;28;20041;-75
2021/07/14 08:47:34;;;;;;;1.20;1.20;;;;;;;15.21;85.26;96093.97;5076600;28;20401;-75
2021/07/14 08:50:01;;;;;;;1.25;1.20;;;;;;;15.29;85.42;96077.66;5076270;28;20048;-75
2021/07/14 08:52:27;;;;;;;1.40;1.30;;;;;;;15.37;85.45;96089.56;5075563;28;20382;-75
2021/07/14 08:54:53;;;;;;;1.10;1.08;;;;;;;15.44;85.37;96090.13;5076040;28;20112;-75
2021/07/14 08:57:20;;;;;;;1.00;1.00;;;;;;;15.45;84.93;96098.84;5076497;28;20033;-75
2021/07/14 08:59:46;;;;;;;1.20;1.10;;;;;;;15.41;84.73;96096.72;5075499;28;20420;-76
2021/07/14 09:02:13;;;;;;;1.00;1.00;;;;;;;15.43;84.71;96099.09;5076901;28;20040;-75
2021/07/14 09:04:39;;;;;;;1.20;1.10;;;;;;;15.47;84.80;96100.19;5075924;28;20052;-75
2021/07/14 09:07:07;;;;;;;1.20;1.10;;;;;;;15.50;84.55;96112.09;5076128;28;20032;-76
2021/07/14 09:09:35;;;;;;;2.55;1.17;;;;;;;15.56;84.54;96116.34;5076328;28;20453;-75
2021/07/14 09:12:02;;;;;;;1.75;1.05;;;;;;;15.62;84.56;96120.59;5075448;28;20043;-75
2021/07/14 09:14:33;;;;;;;1.13;1.02;;;;;;;15.65;84.38;96124.59;5075641;28;20044;-75
2021/07/14 09:17:24;;;;;;;1.00;1.00;;;;;;;15.69;84.39;96123.03;5074921;28;20052;-75
2021/07/14 09:19:53;;;;;;;0.90;0.90;;;;;;;15.74;84.52;96125.72;5076199;28;20059;-75
2021/07/14 09:22:26;;;;;;;0.90;0.90;;;;;;;15.77;83.69;96120.69;5075951;28;20457;-75
2021/07/14 09:24:57;;;;;;;0.90;0.90;;;;;;;15.81;84.15;96107.75;5075793;28;20495;-75
2021/07/14 09:27:28;;;;;;;1.10;1.10;;;;;;;15.89;84.05;96101.16;5075879;28;20045;-75
2021/07/14 09:30:18;;;;;;;1.02;0.93;;;;;;;15.97;82.58;96098.81;5075982;28;20037;-75
2021/07/14 09:33:09;;;;;;;1.40;1.10;;;;;;;16.05;82.94;96104.66;5075870;28;20377;-75
2021/07/14 09:35:49;;;;;;;0.90;0.90;;;;;;;16.12;82.33;96103.34;5076789;28;20039;-75
2021/07/14 09:38:21;;;;;;;0.80;0.80;;;;;;;16.19;82.77;96109.19;5075509;28;20035;-75
2021/07/14 09:40:52;;;;;;;0.83;0.77;;;;;;;16.29;82.87;96103.09;5075821;28;20049;-75
2021/07/14 09:43:23;;;;;;;1.75;0.75;;;;;;;16.39;82.83;96105.75;5076641;28;20036;-75
2021/07/14 09:45:53;;;;;;;2.90;0.98;;;;;;;16.42;81.60;96112.38;5075353;28;20044;-76
2021/07/14 09:48:22;;;;;;;1.30;0.80;;;;;;;16.43;81.55;96108.69;5075106;28;20045;-76
2021/07/14 09:50:52;;;;;;;2.08;0.80;;;;;;;16.47;81.63;96106.31;5075414;28;20033;-75
2021/07/14 09:53:20;;;;;;;1.02;0.90;;;;;;;16.53;81.45;96105.28;5075449;28;20025;-76
2021/07/14 09:55:48;;;;;;;0.95;0.95;;;;;;;16.60;81.41;96111.88;5074673;28;20489;-75
2021/07/14 09:58:20;;;;;;;3.50;0.98;;;;;;;16.68;81.08;96094.69;5074385;28;20051;-76
2021/07/14 10:00:50;;;;;;;0.60;0.60;;;;;;;16.78;80.29;96099.19;5075212;28;20048;-76
2021/07/14 10:03:21;;;;;;;0.50;0.50;;;;;;;16.84;79.80;96101.59;5074957;28;20453;-76
2021/07/14 10:05:48;;;;;;;1.58;0.50;;;;;;;16.93;79.40;96109.00;5075409;28;20036;-75
2021/07/14 10:08:20;;;;;;;0.60;0.50;;;;;;;17.03;77.30;96109.00;5075385;28;20047;-76
2021/07/14 10:10:49;;;;;;;0.75;0.43;;;;;;;17.11;77.34;96112.94;5075391;28;20043;-75
2021/07/14 10:13:17;;;;;;;0.57;0.57;;;;;;;17.21;77.14;96120.88;5074955;28;20487;-75
2021/07/14 10:15:43;;;;;;;0.50;0.50;;;;;;;17.33;77.01;96116.09;5073283;28;20048;-75
2021/07/14 10:18:12;;;;;;;1.05;0.50;;;;;;;17.47;76.53;96123.47;5074222;28;20045;-75
2021/07/14 10:20:40;;;;;;;0.40;0.40;;;;;;;17.60;75.94;96118.41;5074700;28;20039;-75
2021/07/14 10:23:12;;;;;;;0.50;0.50;;;;;;;17.72;75.38;96117.28;5074935;28;20060;-75
2021/07/14 10:25:41;;;;;;;0.50;0.50;;;;;;;17.77;73.66;96115.41;5074629;28;20099;-75
2021/07/14 10:28:09;;;;;;;0.57;0.52;;;;;;;17.80;73.87;96120.16;5074025;28;20043;-76
2021/07/14 10:30:37;;;;;;;0.43;0.35;;;;;;;17.80;73.10;96124.69;5074296;28;20484;-75
2021/07/14 10:33:05;;;;;;;0.40;0.40;;;;;;;17.89;72.79;96123.09;5074500;28;20028;-75
2021/07/14 10:35:37;;;;;;;0.55;0.40;;;;;;;17.99;71.28;96128.34;5074505;28;20081;-77
2021/07/14 10:38:05;;;;;;;0.40;0.40;;;;;;;18.08;71.80;96133.88;5074625;28;20032;-75
2021/07/14 10:40:31;;;;;;;0.57;0.40;;;;;;;18.19;71.71;96130.09;5073749;28;20501;-75
2021/07/14 10:42:58;;;;;;;0.63;0.30;;;;;;;18.32;70.83;96130.56;5074523;28;20036;-75
2021/07/14 10:45:24;;;;;;;0.50;0.47;;;;;;;18.44;70.33;96139.00;5074101;28;20036;-75
2021/07/14 10:47:54;;;;;;;1.00;0.40;;;;;;;18.53;69.93;96128.56;5074012;28;20056;-75
2021/07/14 10:50:20;;;;;;;0.30;0.30;;;;;;;18.64;69.42;96128.22;5074100;28;20044;-77
2021/07/14 10:52:48;;;;;;;0.32;0.32;;;;;;;18.74;68.94;96135.31;5073076;28;20072;-77
2021/07/14 10:55:21;;;;;;;0.35;0.35;;;;;;;18.82;68.13;96123.34;5073941;28;20039;-78
2021/07/14 10:57:50;;;;;;;0.63;0.40;;;;;;;18.93;68.26;96124.03;5074254;28;20385;-78
2021/07/14 11:00:17;;;;;;;0.52;0.40;;;;;;;19.03;67.77;96124.75;5073921;28;20032;-78
2021/07/14 11:02:49;;;;;;;0.30;0.30;;;;;;;19.09;66.27;96112.22;5072439;28;20110;-77
2021/07/14 11:05:30;;;;;;;0.28;0.28;;;;;;;19.14;66.77;96117.47;5074059;28;20024;-79
2021/07/14 11:07:57;;;;;;;0.30;0.30;;;;;;;19.06;66.30;96115.41;5072987;28;20048;-78
2021/07/14 11:10:27;;;;;;;0.82;0.30;;;;;;;18.99;65.79;96113.09;5073502;28;20040;-78
2021/07/14 11:12:56;;;;;;;1.88;0.30;;;;;;;19.01;65.83;96110.94;5073258;28;20048;-78
2021/07/14 11:15:34;;;;;;;0.20;0.20;;;;;;;19.01;63.13;96086.25;5073586;28;20039;-77
2021/07/14 11:18:29;;;;;;;0.45;0.20;;;;;;;19.03;62.68;96089.41;5073812;28;20041;-77
2021/07/14 11:20:57;;;;;;;0.22;0.22;;;;;;;19.14;64.95;96106.03;5068290;28;20107;-77
2021/07/14 11:23:25;;;;;;;0.73;0.30;;;;;;;19.25;64.85;96118.94;5073200;28;20365;-77
2021/07/14 11:25:56;;;;;;;0.17;0.17;;;;;;;19.39;64.45;96110.31;5073239;28;20043;-78
2021/07/14 11:28:26;;;;;;;0.25;0.25;;;;;;;19.52;63.71;96106.97;5072148;28;20048;-78
2021/07/14 11:30:54;;;;;;;0.65;0.30;;;;;;;19.52;63.05;96106.97;5073495;28;20039;-78
2021/07/14 11:33:27;;;;;;;0.25;0.25;;;;;;;19.71;60.95;96079.66;5072388;28;20033;-77
2021/07/14 11:35:59;;;;;;;0.20;0.20;;;;;;;19.99;59.41;96069.97;5073440;28;20028;-77
2021/07/14 11:38:28;;;;;;;0.20;0.20;;;;;;;20.19;61.06;96082.22;5074067;28;20024;-77
2021/07/14 11:40:57;;;;;;;0.20;0.20;;;;;;;20.38;60.49;96077.66;5073023;28;20475;-77
2021/07/14 11:43:29;;;;;;;0.20;0.20;;;;;;;20.64;59.64;96067.44;5071565;28;20051;-77
2021/07/14 11:46:03;;;;;;;0.28;0.28;;;;;;;20.95;57.31;96056.25;5073853;28;20032;-77
2021/07/14 11:48:31;;;;;;;;;;;;;;;21.18;56.85;96043.06;5074131;28;20051;-77